Wednesday, May 04, 2016
15:32 UTC
  |  Log In   |  Register Free
Airport Search:

Ellington Airport
(KEFD)

FAA data valid effective Mar 31 2016 - May 26 2016 (unless otherwise noted).

 
 
 
 
 
 
 
 
 
 
 
 
 
 
Current Aviation Weather for KEFD

Weather Summary


The most recent METAR observation for EFD was updated at: 12:50 UTC
METAR for KEFD is not available. Closest METAR is for KHOU
KEFD  (most recent observation was updatred at 41:45 UTC)
041450Z 34005KT 10SM CLR 21/09 A3009

KHOU  (6.7 nm SE)   (most recent observation was updated at 41:45 UTC)
041453Z 33005KT 10SM CLR 22/09 A3008 RMK AO2 SLP192 T02170094 51011

KLVJ  (6.8 nm NE)   (most recent observation was updated at 41:45 UTC)
041453Z AUTO 31003KT 10SM CLR 22/10 A3010 RMK AO2 SLP191 T02220100 51010

TAF for KEFD is not available.
KEFD
041200Z 0412/0518 VRB06KT 9999 SKC 510043 QNH3004INS BECMG 0417/0418 35010G15KT 9999 SKC QNH3004INS BECMG 0420/0421 32015G20KT 9999 SKC QNH2997INS BECMG 0423/0424 30009KT 9999 FEW040 QNH2995INS TX27/0420Z TN15/0412Z

KHOU  (6.7 nm SE)   (most recent observation was updatred at 41:50 UTC)
AMD 041500Z 0415/0512 35004KT P6SM SKC FM041700 33011KT P6SM SKC


KIAH  (24.6 nm SE)   (most recent observation was updatred at 41:50 UTC)
AMD 041500Z 0415/0518 33004KT P6SM SKC FM042000 33011KT P6SM SKC FM051500 36006KT P6SM SKC
GlobalAir.com is loading additional information.
 Current Weather at EFD
63.0 F° (17.0 C°)

Northwest winds at 3.5 mph
Pressure:
30.08 in
Humidity:
73%
Wind:
Northwest at 3.5 mph
Dew Point:
53.6 F° (12.0 C°)
Visibility:
10.00 mi
EFD NOAA Radar




Find All Airport Services Find A Hotel Find A Rental Car Find A Golf Course Find A Restaurant $100 Hamburger



Airport Weather Forecast for KEFD

Translated METAR for KEFD (1450 UTC)
METAR:
KEFD 041450Z 34005KT 10SM CLR 21/09 A3009
Conditions at:
KEFD (Ellington, TX) observed 1450 UTC 04 May 2016
Temperature:
21°C (69.8°F)
Dewpoint:
9°C (48.2°F) [RH = 46.2]
Pressure:
30.09 inches Hg (1019 mb)
Winds:
from the NNW (340 degrees) at 5.8 mph (5 knots: 2.6 m/s)
Visibility:
10 mile(s)
Ceiling:
at least 12,000 feet AGL
Clouds:
Clear below 12,000 feet AGL
Remarks:

Translated TAF for KEFD (Ellington, TX) (1200 UTC)
TAF text:
KEFD 041200Z 0412/0518 VRB06KT 9999 SKC 510043 QNH3004INS BECMG 0417/0418 35010G15KT 9999 SKC QNH3004INS BECMG 0420/0421 32015G20KT 9999 SKC QNH2997INS BECMG 0423/0424 30009KT 9999 FEW040 QNH2995INS TX27/0420Z TN15/0412Z
Forecast period:
Wednesday May 04 2016 12:00 UTC - Thursday May 05 2016 18:00 UTC
Forecast type:
FROM: standard forecast or significant change
Winds:
from the WNW (300 degrees) at 10.4 mph (9 knots: 4.6 m/s)
Visibility:
Ceiling:
at least 12,000 feet AGL
at least 12,000 feet AGL
at least 12,000 feet AGL
at least 12,000 feet AGL
Clouds:
Clear Skies
Clear Skies
Clear Skies
Few Clouds at 4,000 feet AGL
Weather:
no significant weather observed at this time
FBO's on the Field
FBO Company Facility Photos Services Transportation Aviation Fuel Prices: Prices include tax
Catering Weather Repair Courtesy Rental Type 100LL JetA JetA+ MOGAS 8087
 
Signature Flight Support - EFD

This FBO has not yet been rated
FS:Independent
Last Updated: May-04
Login to update fuel prices
SS:
Contact Signature Flight Support - EFDMore FBO Information
 
Add another FBO Facility Photos Catering Weather Repair Courtesy Rental Type 100LL JetA JetA+ MOGAS 8087
Services Transportation Aviation Fuel Prices: Prices include tax


model-print
model-print
model-print
model-print